FDB807 OMDB-OEJN
Flight info
| Callsign | FDB807 |
|---|---|
| Flight time | N/A |
| Altitude | 36000 |
| Route | KUTLI L519 ATUDO DCT GOLGU DCT RIBOT DCT MIGMA DCT ITRUX Y511 ASMIS T218 IMGUT DCT VEMEM |
| Aircraft | B38M/M-SDE1FGHILORVWXY/HB1 |
Departure
| Time | 2026-05-05 13:00 |
|---|---|
| Airport | Dubai International Airport (OMDB) |
Arrival
| Time | N/A |
|---|---|
| Airport | King Abdulaziz International Airport (OEJN) |
| Time | Latitude | Longitude | Altitude | Speed | Heading |
|---|---|---|---|---|---|
| 2026-05-05 12:21 | 25.26420 | 55.35860 | 24 ft | 0 kts | 31° |
| 2026-05-05 12:46 | 25.26412 | 55.35854 | -4 ft | 4 kts | 31° |
| 2026-05-05 12:46 | 25.26388 | 55.35838 | 25 ft | 4 kts | 31° |
| 2026-05-05 12:47 | 25.26370 | 55.35826 | 27 ft | 4 kts | 33° |
| 2026-05-05 12:47 | 25.26357 | 55.35807 | 25 ft | 4 kts | 95° |
| 2026-05-05 12:47 | 25.26366 | 55.35783 | 25 ft | 4 kts | 122° |
| 2026-05-05 12:47 | 25.26373 | 55.35771 | 25 ft | 1 kts | 122° |
| 2026-05-05 12:50 | 25.26368 | 55.35781 | 25 ft | 3 kts | 122° |
| 2026-05-05 12:51 | 25.26354 | 55.35806 | 25 ft | 4 kts | 120° |
| 2026-05-05 12:51 | 25.26334 | 55.35841 | 24 ft | 6 kts | 122° |
| 2026-05-05 12:51 | 25.26308 | 55.35888 | 25 ft | 8 kts | 122° |
| 2026-05-05 12:51 | 25.26275 | 55.35946 | 26 ft | 10 kts | 122° |
| 2026-05-05 12:52 | 25.26235 | 55.36017 | 24 ft | 12 kts | 122° |
| 2026-05-05 12:52 | 25.26189 | 55.36100 | 24 ft | 13 kts | 122° |
| 2026-05-05 12:52 | 25.26138 | 55.36190 | 25 ft | 14 kts | 123° |
| 2026-05-05 12:52 | 25.26086 | 55.36282 | 27 ft | 15 kts | 122° |
| 2026-05-05 12:53 | 25.26031 | 55.36381 | 24 ft | 14 kts | 122° |
| 2026-05-05 12:53 | 25.25976 | 55.36479 | 24 ft | 16 kts | 122° |
| 2026-05-05 12:53 | 25.25914 | 55.36588 | 25 ft | 17 kts | 122° |
| 2026-05-05 12:53 | 25.25856 | 55.36692 | 26 ft | 16 kts | 122° |
| 2026-05-05 12:54 | 25.25731 | 55.36915 | 27 ft | 17 kts | 122° |
| 2026-05-05 12:54 | 25.25669 | 55.37024 | 26 ft | 16 kts | 122° |
| 2026-05-05 12:54 | 25.25609 | 55.37131 | 24 ft | 17 kts | 122° |
| 2026-05-05 12:55 | 25.25543 | 55.37249 | 25 ft | 16 kts | 122° |
| 2026-05-05 12:55 | 25.25482 | 55.37358 | 27 ft | 17 kts | 122° |
| 2026-05-05 12:55 | 25.25423 | 55.37463 | 27 ft | 17 kts | 122° |
| 2026-05-05 12:55 | 25.25358 | 55.37576 | 26 ft | 18 kts | 122° |
| 2026-05-05 12:56 | 25.25288 | 55.37699 | 25 ft | 19 kts | 120° |
| 2026-05-05 12:56 | 25.25230 | 55.37810 | 27 ft | 16 kts | 121° |
| 2026-05-05 12:56 | 25.25171 | 55.37914 | 25 ft | 17 kts | 122° |
| 2026-05-05 12:56 | 25.25105 | 55.38026 | 24 ft | 18 kts | 123° |
| 2026-05-05 12:57 | 25.25051 | 55.38122 | 24 ft | 10 kts | 122° |
| 2026-05-05 12:57 | 25.25001 | 55.38168 | 24 ft | 9 kts | 176° |
| 2026-05-05 12:57 | 25.24946 | 55.38144 | 24 ft | 9 kts | 211° |
| 2026-05-05 12:57 | 25.24892 | 55.38108 | 28 ft | 9 kts | 211° |
| 2026-05-05 12:58 | 25.24847 | 55.38078 | 27 ft | 6 kts | 211° |
| 2026-05-05 12:58 | 25.24810 | 55.38051 | 28 ft | 5 kts | 226° |
| 2026-05-05 12:58 | 25.24807 | 55.38035 | 27 ft | 2 kts | 275° |
| 2026-05-05 12:58 | 25.24815 | 55.38012 | 27 ft | 4 kts | 298° |
| 2026-05-05 12:59 | 25.24819 | 55.38003 | 27 ft | 2 kts | 299° |
| 2026-05-05 12:59 | 25.24900 | 55.37855 | 28 ft | 61 kts | 301° |
| 2026-05-05 12:59 | 25.25261 | 55.37200 | 29 ft | 137 kts | 301° |
| 2026-05-05 13:00 | 25.26526 | 55.34960 | 939 ft | 194 kts | 306° |
| 2026-05-05 13:00 | 25.27218 | 55.33709 | 1763 ft | 189 kts | 304° |
| 2026-05-05 13:01 | 25.29099 | 55.29064 | 3657 ft | 247 kts | 264° |
| 2026-05-05 13:01 | 25.28597 | 55.27238 | 4333 ft | 251 kts | 242° |
| 2026-05-05 13:01 | 25.28103 | 55.26078 | 4865 ft | 250 kts | 243° |
| 2026-05-05 13:01 | 25.27129 | 55.23771 | 5932 ft | 252 kts | 243° |
| 2026-05-05 13:02 | 25.26383 | 55.22008 | 6655 ft | 254 kts | 244° |
| 2026-05-05 13:02 | 25.25885 | 55.20831 | 7149 ft | 255 kts | 244° |
| 2026-05-05 13:02 | 25.25122 | 55.19033 | 7850 ft | 260 kts | 244° |
| 2026-05-05 13:02 | 25.24084 | 55.16619 | 8769 ft | 266 kts | 242° |
| 2026-05-05 13:03 | 25.23137 | 55.14782 | 9236 ft | 282 kts | 239° |
| 2026-05-05 13:03 | 25.22468 | 55.13501 | 9707 ft | 287 kts | 239° |
| 2026-05-05 13:03 | 25.21459 | 55.11553 | 10140 ft | 303 kts | 240° |
| 2026-05-05 13:03 | 25.20388 | 55.09459 | 10487 ft | 323 kts | 242° |
| 2026-05-05 13:04 | 25.19474 | 55.07115 | 10798 ft | 340 kts | 248° |
| 2026-05-05 13:04 | 25.18568 | 55.04651 | 11253 ft | 351 kts | 248° |
| 2026-05-05 13:04 | 25.17642 | 55.02178 | 12007 ft | 352 kts | 248° |
| 2026-05-05 13:04 | 25.16690 | 54.99663 | 12680 ft | 357 kts | 248° |
| 2026-05-05 13:05 | 25.15688 | 54.97135 | 13399 ft | 360 kts | 242° |
| 2026-05-05 13:05 | 25.14157 | 54.94952 | 14041 ft | 363 kts | 221° |
| 2026-05-05 13:05 | 25.12020 | 54.93467 | 14697 ft | 366 kts | 202° |
| 2026-05-05 13:05 | 25.09533 | 54.92840 | 15296 ft | 370 kts | 184° |
| 2026-05-05 13:06 | 25.06968 | 54.92789 | 15869 ft | 375 kts | 182° |
| 2026-05-05 13:06 | 25.04342 | 54.92754 | 16451 ft | 379 kts | 182° |
| 2026-05-05 13:06 | 25.01687 | 54.92830 | 17039 ft | 382 kts | 177° |
| 2026-05-05 13:06 | 24.99025 | 54.93013 | 17638 ft | 385 kts | 178° |
| 2026-05-05 13:07 | 24.96334 | 54.93189 | 18196 ft | 387 kts | 178° |
| 2026-05-05 13:07 | 24.93660 | 54.93360 | 18661 ft | 392 kts | 178° |
| 2026-05-05 13:07 | 24.90924 | 54.93532 | 19141 ft | 395 kts | 178° |
| 2026-05-05 13:07 | 24.88168 | 54.93632 | 19615 ft | 396 kts | 186° |
| 2026-05-05 13:08 | 24.85482 | 54.92977 | 20075 ft | 395 kts | 205° |
| 2026-05-05 13:08 | 24.83004 | 54.91653 | 20517 ft | 397 kts | 208° |
| 2026-05-05 13:08 | 24.80564 | 54.90264 | 20954 ft | 400 kts | 210° |
| 2026-05-05 13:08 | 24.78088 | 54.88824 | 21427 ft | 403 kts | 210° |
| 2026-05-05 13:09 | 24.75602 | 54.87361 | 21873 ft | 406 kts | 210° |
| 2026-05-05 13:09 | 24.73102 | 54.85876 | 22320 ft | 409 kts | 210° |
| 2026-05-05 13:09 | 24.70594 | 54.84382 | 22766 ft | 412 kts | 211° |
| 2026-05-05 13:09 | 24.68114 | 54.82847 | 23188 ft | 414 kts | 213° |
| 2026-05-05 13:10 | 24.65615 | 54.81240 | 23580 ft | 416 kts | 212° |
| 2026-05-05 13:10 | 24.63107 | 54.79638 | 23966 ft | 418 kts | 212° |
| 2026-05-05 13:10 | 24.60584 | 54.78032 | 24347 ft | 420 kts | 212° |
| 2026-05-05 13:10 | 24.58050 | 54.76420 | 24729 ft | 421 kts | 212° |
| 2026-05-05 13:11 | 24.55503 | 54.74800 | 25104 ft | 423 kts | 212° |
| 2026-05-05 13:11 | 24.52958 | 54.73172 | 25480 ft | 424 kts | 213° |
| 2026-05-05 13:11 | 24.50399 | 54.71528 | 25848 ft | 426 kts | 213° |
| 2026-05-05 13:11 | 24.47863 | 54.69900 | 26217 ft | 427 kts | 213° |
| 2026-05-05 13:12 | 24.45283 | 54.68246 | 26576 ft | 429 kts | 213° |
| 2026-05-05 13:12 | 24.42704 | 54.66595 | 26933 ft | 430 kts | 213° |
| 2026-05-05 13:12 | 24.40098 | 54.64929 | 27285 ft | 432 kts | 213° |
| 2026-05-05 13:12 | 24.37494 | 54.63264 | 27626 ft | 434 kts | 213° |
| 2026-05-05 13:13 | 24.34875 | 54.61590 | 27961 ft | 436 kts | 213° |
| 2026-05-05 13:13 | 24.32280 | 54.59933 | 28299 ft | 437 kts | 213° |
| 2026-05-05 13:13 | 24.29749 | 54.58083 | 28602 ft | 435 kts | 224° |
| 2026-05-05 13:13 | 24.27773 | 54.55599 | 28907 ft | 431 kts | 239° |
| 2026-05-05 13:14 | 24.26185 | 54.52797 | 29167 ft | 434 kts | 240° |
| 2026-05-05 13:14 | 24.24633 | 54.49984 | 29441 ft | 435 kts | 241° |
| 2026-05-05 13:14 | 24.23084 | 54.47115 | 29703 ft | 438 kts | 241° |
| 2026-05-05 13:14 | 24.21545 | 54.44229 | 29966 ft | 439 kts | 241° |
| 2026-05-05 13:15 | 24.20008 | 54.41329 | 30205 ft | 441 kts | 242° |
| 2026-05-05 13:15 | 24.18466 | 54.38412 | 30457 ft | 442 kts | 242° |
| 2026-05-05 13:15 | 24.16941 | 54.35526 | 30703 ft | 444 kts | 242° |
| 2026-05-05 13:15 | 24.15388 | 54.32588 | 30938 ft | 445 kts | 242° |
| 2026-05-05 13:16 | 24.13827 | 54.29636 | 31160 ft | 447 kts | 242° |
| 2026-05-05 13:16 | 24.12262 | 54.26678 | 31387 ft | 448 kts | 242° |
| 2026-05-05 13:16 | 24.10695 | 54.23721 | 31659 ft | 449 kts | 242° |
| 2026-05-05 13:16 | 24.09148 | 54.20801 | 31950 ft | 448 kts | 242° |
| 2026-05-05 13:17 | 24.07582 | 54.17848 | 32265 ft | 447 kts | 242° |
| 2026-05-05 13:17 | 24.06021 | 54.14906 | 32582 ft | 447 kts | 242° |